sensor_id;sensor_type;location;lat;lon;timestamp;pressure;altitude;pressure_sealevel;temperature;humidity
29331;BME280;16331;52.528;13.342;2022-12-07T00:01:39;142849.66;;;3.67;100.00
29331;BME280;16331;52.528;13.342;2022-12-07T00:04:07;146072.28;;;3.76;100.00
29331;BME280;16331;52.528;13.342;2022-12-07T00:06:39;151778.59;;;3.84;100.00
29331;BME280;16331;52.528;13.342;2022-12-07T00:09:06;156727.56;;;3.65;100.00
29331;BME280;16331;52.528;13.342;2022-12-07T00:11:34;156738.44;;;3.69;100.00
29331;BME280;16331;52.528;13.342;2022-12-07T00:14:05;156756.16;;;3.75;100.00
29331;BME280;16331;52.528;13.342;2022-12-07T00:16:32;156735.75;;;3.68;100.00
29331;BME280;16331;52.528;13.342;2022-12-07T00:18:59;156772.50;;;3.81;100.00
29331;BME280;16331;52.528;13.342;2022-12-07T00:21:27;156756.16;;;3.75;100.00
29331;BME280;16331;52.528;13.342;2022-12-07T00:23:55;156745.28;;;3.71;100.00
29331;BME280;16331;52.528;13.342;2022-12-07T00:26:24;156758.88;;;3.76;100.00
29331;BME280;16331;52.528;13.342;2022-12-07T00:28:56;156739.81;;;3.69;100.00
29331;BME280;16331;52.528;13.342;2022-12-07T00:31:25;156735.75;;;3.68;100.00
29331;BME280;16331;52.528;13.342;2022-12-07T00:33:52;156708.47;;;3.58;100.00
29331;BME280;16331;52.528;13.342;2022-12-07T00:36:22;156708.47;;;3.58;100.00
29331;BME280;16331;52.528;13.342;2022-12-07T00:38:49;156667.56;;;3.43;100.00
29331;BME280;16331;52.528;13.342;2022-12-07T00:41:17;156753.47;;;3.74;100.00
29331;BME280;16331;52.528;13.342;2022-12-07T00:43:46;156679.88;;;3.47;100.00
29331;BME280;16331;52.528;13.342;2022-12-07T00:46:13;156713.94;;;3.60;100.00
29331;BME280;16331;52.528;13.342;2022-12-07T00:48:40;156696.22;;;3.53;100.00
29331;BME280;16331;52.528;13.342;2022-12-07T00:51:10;156623.97;;;3.27;100.00
29331;BME280;16331;52.528;13.342;2022-12-07T00:53:38;156644.44;;;3.34;100.00
29331;BME280;16331;52.528;13.342;2022-12-07T00:56:22;156610.38;;;3.22;100.00
29331;BME280;16331;52.528;13.342;2022-12-07T00:58:57;156594.00;;;3.16;100.00
29331;BME280;16331;52.528;13.342;2022-12-07T01:01:26;156619.88;;;3.25;100.00
29331;BME280;16331;52.528;13.342;2022-12-07T01:03:53;156668.94;;;3.43;100.00
29331;BME280;16331;52.528;13.342;2022-12-07T01:06:21;156651.22;;;3.37;100.00
29331;BME280;16331;52.528;13.342;2022-12-07T01:08:49;156637.59;;;3.32;100.00
29331;BME280;16331;52.528;13.342;2022-12-07T01:11:18;156656.69;;;3.39;100.00
29331;BME280;16331;52.528;13.342;2022-12-07T01:13:45;156666.22;;;3.42;100.00
29331;BME280;16331;52.528;13.342;2022-12-07T01:16:15;156653.97;;;3.38;100.00
29331;BME280;16331;52.528;13.342;2022-12-07T01:18:41;156682.56;;;3.48;100.00
29331;BME280;16331;52.528;13.342;2022-12-07T01:21:12;156726.19;;;3.64;100.00
29331;BME280;16331;52.528;13.342;2022-12-07T01:23:39;156668.94;;;3.43;100.00
29331;BME280;16331;52.528;13.342;2022-12-07T01:26:13;156626.72;;;3.28;100.00
29331;BME280;16331;52.528;13.342;2022-12-07T01:28:40;156618.56;;;3.25;100.00
29331;BME280;16331;52.528;13.342;2022-12-07T01:31:10;156613.09;;;3.23;100.00
29331;BME280;16331;52.528;13.342;2022-12-07T01:33:39;156636.25;;;3.31;100.00
29331;BME280;16331;52.528;13.342;2022-12-07T01:36:18;156651.22;;;3.37;100.00
29331;BME280;16331;52.528;13.342;2022-12-07T01:38:46;156666.22;;;3.42;100.00
29331;BME280;16331;52.528;13.342;2022-12-07T01:41:14;156662.16;;;3.41;100.00
29331;BME280;16331;52.528;13.342;2022-12-07T01:44:23;156628.03;;;3.28;100.00
29331;BME280;16331;52.528;13.342;2022-12-07T01:46:51;156643.06;;;3.34;100.00
29331;BME280;16331;52.528;13.342;2022-12-07T01:49:37;156609.00;;;3.21;100.00
29331;BME280;16331;52.528;13.342;2022-12-07T01:52:22;156606.28;;;3.20;100.00
29331;BME280;16331;52.528;13.342;2022-12-07T01:54:54;156634.88;;;3.31;100.00
29331;BME280;16331;52.528;13.342;2022-12-07T01:57:23;156686.66;;;3.50;100.00
29331;BME280;16331;52.528;13.342;2022-12-07T01:59:51;156719.34;;;3.62;100.00
29331;BME280;16331;52.528;13.342;2022-12-07T02:02:31;156649.84;;;3.36;100.00
29331;BME280;16331;52.528;13.342;2022-12-07T02:05:01;156681.19;;;3.48;100.00
29331;BME280;16331;52.528;13.342;2022-12-07T02:07:28;156607.63;;;3.21;100.00
29331;BME280;16331;52.528;13.342;2022-12-07T02:09:55;156618.56;;;3.25;100.00
29331;BME280;16331;52.528;13.342;2022-12-07T02:12:23;156596.75;;;3.17;100.00
29331;BME280;16331;52.528;13.342;2022-12-07T02:14:52;156613.09;;;3.23;100.00
29331;BME280;16331;52.528;13.342;2022-12-07T02:17:29;156572.19;;;3.08;100.00
29331;BME280;16331;52.528;13.342;2022-12-07T02:32:54;156553.16;;;3.01;100.00
29331;BME280;16331;52.528;13.342;2022-12-07T02:35:33;156559.94;;;3.03;100.00
29331;BME280;16331;52.528;13.342;2022-12-07T02:40:41;156502.72;;;2.82;100.00
29331;BME280;16331;52.528;13.342;2022-12-07T02:45:42;156523.19;;;2.89;100.00
29331;BME280;16331;52.528;13.342;2022-12-07T02:48:12;156554.47;;;3.01;100.00
29331;BME280;16331;52.528;13.342;2022-12-07T02:50:43;156506.81;;;2.83;100.00
29331;BME280;16331;52.528;13.342;2022-12-07T02:53:29;156491.88;;;2.78;100.00
29331;BME280;16331;52.528;13.342;2022-12-07T02:56:20;156505.50;;;2.83;100.00
29331;BME280;16331;52.528;13.342;2022-12-07T03:02:14;156516.34;;;2.87;100.00
29331;BME280;16331;52.528;13.342;2022-12-07T03:07:55;156497.31;;;2.80;100.00
29331;BME280;16331;52.528;13.342;2022-12-07T03:18:55;156534.06;;;2.93;100.00
29331;BME280;16331;52.528;13.342;2022-12-07T03:21:47;156565.41;;;3.05;100.00
29331;BME280;16331;52.528;13.342;2022-12-07T03:24:17;156574.94;;;3.09;100.00
29331;BME280;16331;52.528;13.342;2022-12-07T03:26:50;156583.13;;;3.12;100.00
29331;BME280;16331;52.528;13.342;2022-12-07T03:29:22;156574.94;;;3.09;100.00
29331;BME280;16331;52.528;13.342;2022-12-07T03:31:51;156579.03;;;3.10;100.00
29331;BME280;16331;52.528;13.342;2022-12-07T03:34:24;156581.75;;;3.11;100.00
29331;BME280;16331;52.528;13.342;2022-12-07T03:37:03;156613.09;;;3.23;100.00
29331;BME280;16331;52.528;13.342;2022-12-07T03:39:39;156602.16;;;3.19;100.00
29331;BME280;16331;52.528;13.342;2022-12-07T03:42:09;156619.88;;;3.25;100.00
29331;BME280;16331;52.528;13.342;2022-12-07T03:44:36;156596.75;;;3.17;100.00
29331;BME280;16331;52.528;13.342;2022-12-07T03:47:13;156598.06;;;3.17;100.00
29331;BME280;16331;52.528;13.342;2022-12-07T03:49:46;156628.03;;;3.28;100.00
29331;BME280;16331;52.528;13.342;2022-12-07T03:55:20;156580.38;;;3.11;100.00
29331;BME280;16331;52.528;13.342;2022-12-07T03:57:51;156538.16;;;2.95;100.00
29331;BME280;16331;52.528;13.342;2022-12-07T04:00:19;156519.13;;;2.88;100.00
29331;BME280;16331;52.528;13.342;2022-12-07T04:02:47;156557.25;;;3.02;100.00
29331;BME280;16331;52.528;13.342;2022-12-07T04:05:13;156555.84;;;3.02;100.00
29331;BME280;16331;52.528;13.342;2022-12-07T04:07:40;156525.91;;;2.90;100.00
29331;BME280;16331;52.528;13.342;2022-12-07T04:10:07;156513.66;;;2.86;100.00
29331;BME280;16331;52.528;13.342;2022-12-07T04:12:33;156497.31;;;2.80;100.00
29331;BME280;16331;52.528;13.342;2022-12-07T04:14:59;156466.00;;;2.68;100.00
29331;BME280;16331;52.528;13.342;2022-12-07T04:17:25;154840.81;;;2.75;100.00
29331;BME280;16331;52.528;13.342;2022-12-07T04:19:51;146906.75;;;2.84;100.00
29331;BME280;16331;52.528;13.342;2022-12-07T04:22:17;144428.13;;;2.87;100.00
29331;BME280;16331;52.528;13.342;2022-12-07T04:24:44;141941.16;;;2.86;100.00
29331;BME280;16331;52.528;13.342;2022-12-07T04:27:11;139472.94;;;2.92;100.00
29331;BME280;16331;52.528;13.342;2022-12-07T04:29:42;139457.16;;;2.86;100.00
29331;BME280;16331;52.528;13.342;2022-12-07T04:32:08;135559.19;;;2.86;100.00
29331;BME280;16331;52.528;13.342;2022-12-07T04:34:34;132709.66;;;2.78;100.00
29331;BME280;16331;52.528;13.342;2022-12-07T04:37:01;128466.16;;;2.78;100.00
29331;BME280;16331;52.528;13.342;2022-12-07T04:39:29;124935.97;;;2.79;100.00
29331;BME280;16331;52.528;13.342;2022-12-07T04:41:57;121769.34;;;2.84;100.00
29331;BME280;16331;52.528;13.342;2022-12-07T04:44:26;119645.00;;;2.80;100.00
29331;BME280;16331;52.528;13.342;2022-12-07T04:46:53;118227.88;;;2.76;100.00
29331;BME280;16331;52.528;13.342;2022-12-07T04:49:19;115403.97;;;2.73;100.00
29331;BME280;16331;52.528;13.342;2022-12-07T04:51:46;111538.13;;;2.76;100.00
29331;BME280;16331;52.528;13.342;2022-12-07T04:54:15;108733.25;;;2.80;100.00
29331;BME280;16331;52.528;13.342;2022-12-07T04:56:44;106290.78;;;2.89;100.00
29331;BME280;16331;52.528;13.342;2022-12-07T04:59:16;105592.06;;;2.91;100.00
29331;BME280;16331;52.528;13.342;2022-12-07T05:01:48;104550.56;;;2.97;100.00
29331;BME280;16331;52.528;13.342;2022-12-07T05:04:14;102813.38;;;3.08;100.00
29331;BME280;16331;52.528;13.342;2022-12-07T05:06:41;102838.66;;;3.22;100.00
29331;BME280;16331;52.528;13.342;2022-12-07T05:09:08;102863.88;;;3.36;100.00
29331;BME280;16331;52.528;13.342;2022-12-07T05:11:34;105668.88;;;3.33;100.00
29331;BME280;16331;52.528;13.342;2022-12-07T05:14:18;106713.06;;;3.27;100.00
29331;BME280;16331;52.528;13.342;2022-12-07T05:16:46;106368.09;;;3.31;100.00
29331;BME280;16331;52.528;13.342;2022-12-07T05:19:13;106010.09;;;3.27;100.00
29331;BME280;16331;52.528;13.342;2022-12-07T05:21:39;103909.38;;;3.31;100.00
29331;BME280;16331;52.528;13.342;2022-12-07T05:24:07;102516.34;;;3.38;100.00
29331;BME280;16331;52.528;13.342;2022-12-07T05:26:33;102522.59;;;3.41;100.00
29331;BME280;16331;52.528;13.342;2022-12-07T05:29:00;102865.69;;;3.37;100.00
29331;BME280;16331;52.528;13.342;2022-12-07T05:31:26;101826.59;;;3.45;100.00
29331;BME280;16331;52.528;13.342;2022-12-07T05:33:55;101832.84;;;3.48;100.00
29331;BME280;16331;52.528;13.342;2022-12-07T05:36:22;101841.78;;;3.53;100.00
29331;BME280;16331;52.528;13.342;2022-12-07T05:38:49;102545.06;;;3.54;100.00
29331;BME280;16331;52.528;13.342;2022-12-07T05:41:17;102550.50;;;3.57;100.00
29331;BME280;16331;52.528;13.342;2022-12-07T05:44:04;103240.41;;;3.50;100.00
29331;BME280;16331;52.528;13.342;2022-12-07T05:46:30;100823.75;;;3.73;100.00
29331;BME280;16331;52.528;13.342;2022-12-07T05:48:56;102216.25;;;3.66;100.00
29331;BME280;16331;52.528;13.342;2022-12-07T05:51:23;103628.94;;;3.70;100.00
29331;BME280;16331;52.528;13.342;2022-12-07T05:53:49;104329.19;;;3.69;100.00
29331;BME280;16331;52.528;13.342;2022-12-07T05:56:15;103980.41;;;3.70;100.00
29331;BME280;16331;52.528;13.342;2022-12-07T05:58:43;104332.84;;;3.71;100.00
29331;BME280;16331;52.528;13.342;2022-12-07T06:01:27;103294.69;;;3.80;100.00
29331;BME280;16331;52.528;13.342;2022-12-07T06:03:53;103657.09;;;3.86;100.00
29331;BME280;16331;52.528;13.342;2022-12-07T06:06:20;104365.75;;;3.89;100.00
29331;BME280;16331;52.528;13.342;2022-12-07T06:08:46;106114.13;;;3.83;100.00
29331;BME280;16331;52.528;13.342;2022-12-07T06:11:12;105765.16;;;3.85;100.00
29331;BME280;16331;52.528;13.342;2022-12-07T06:13:56;105408.81;;;3.82;100.00
29331;BME280;16331;52.528;13.342;2022-12-07T06:16:22;104009.56;;;3.86;100.00
29331;BME280;16331;52.528;13.342;2022-12-07T06:18:49;103676.19;;;3.96;100.00
29331;BME280;16331;52.528;13.342;2022-12-07T06:21:15;105420.81;;;3.89;100.00
29331;BME280;16331;52.528;13.342;2022-12-07T06:23:41;104710.06;;;3.85;100.00
29331;BME280;16331;52.528;13.342;2022-12-07T06:26:07;103999.56;;;3.81;100.00
29331;BME280;16331;52.528;13.342;2022-12-07T06:28:33;101890.00;;;3.80;100.00
29331;BME280;16331;52.528;13.342;2022-12-07T06:31:01;100855.59;;;3.91;100.00
29331;BME280;16331;52.528;13.342;2022-12-07T06:33:28;102591.81;;;3.80;100.00
29331;BME280;16331;52.528;13.342;2022-12-07T06:35:55;101199.81;;;3.87;100.00
29331;BME280;16331;52.528;13.342;2022-12-07T06:38:22;100144.31;;;3.86;100.00
29331;BME280;16331;52.528;13.342;2022-12-07T06:40:53;98431.94;;;4.11;100.00
29331;BME280;16331;52.528;13.342;2022-12-07T06:43:19;101592.09;;;4.10;100.00
29331;BME280;16331;52.528;13.342;2022-12-07T06:45:45;104384.03;;;3.99;100.00
29331;BME280;16331;52.528;13.342;2022-12-07T06:48:12;104049.66;;;4.08;100.00
29331;BME280;16331;52.528;13.342;2022-12-07T06:50:38;104385.88;;;4.00;100.00
29331;BME280;16331;52.528;13.342;2022-12-07T06:53:04;102987.47;;;4.04;100.00
29331;BME280;16331;52.528;13.342;2022-12-07T06:55:30;102973.94;;;3.97;100.00
29331;BME280;16331;52.528;13.342;2022-12-07T06:57:56;100169.78;;;4.01;100.00
29331;BME280;16331;52.528;13.342;2022-12-07T07:00:25;99128.28;;;4.08;100.00
29331;BME280;16331;52.528;13.342;2022-12-07T07:02:51;99150.88;;;4.21;100.00
29331;BME280;16331;52.528;13.342;2022-12-07T07:05:17;100920.19;;;4.28;100.00
29331;BME280;16331;52.528;13.342;2022-12-07T07:07:50;103352.66;;;4.12;100.00
29331;BME280;16331;52.528;13.342;2022-12-07T07:10:16;100899.81;;;4.16;100.00
29331;BME280;16331;52.528;13.342;2022-12-07T07:12:42;101605.44;;;4.18;100.00
29331;BME280;16331;52.528;13.342;2022-12-07T07:15:09;101239.75;;;4.10;100.00
29331;BME280;16331;52.528;13.342;2022-12-07T07:17:35;100549.28;;;4.17;100.00
29331;BME280;16331;52.528;13.342;2022-12-07T07:20:01;100197.91;;;4.17;100.00
29331;BME280;16331;52.528;13.342;2022-12-07T07:22:28;100545.75;;;4.15;100.00
29331;BME280;16331;52.528;13.342;2022-12-07T07:24:54;100197.00;;;4.16;100.00
29331;BME280;16331;52.528;13.342;2022-12-07T07:27:20;99509.19;;;4.25;100.00
29331;BME280;16331;52.528;13.342;2022-12-07T07:29:48;101274.38;;;4.29;100.00
29331;BME280;16331;52.528;13.342;2022-12-07T07:32:15;102683.56;;;4.31;100.00
29331;BME280;16331;52.528;13.342;2022-12-07T07:34:41;106182.91;;;4.20;100.00
29331;BME280;16331;52.528;13.342;2022-12-07T07:37:08;107588.38;;;4.19;100.00
29331;BME280;16331;52.528;13.342;2022-12-07T07:39:34;108277.53;;;4.11;100.00
29331;BME280;16331;52.528;13.342;2022-12-07T07:42:01;109710.44;;;4.23;100.00
29331;BME280;16331;52.528;13.342;2022-12-07T07:44:27;114282.31;;;4.17;100.00
29331;BME280;16331;52.528;13.342;2022-12-07T07:46:54;115002.00;;;4.24;100.00
29331;BME280;16331;52.528;13.342;2022-12-07T07:49:23;116425.13;;;4.30;100.00
29331;BME280;16331;52.528;13.342;2022-12-07T07:51:49;119625.22;;;4.40;100.00
29331;BME280;16331;52.528;13.342;2022-12-07T07:54:15;126333.16;;;4.33;100.00
29331;BME280;16331;52.528;13.342;2022-12-07T07:56:42;128825.06;;;4.39;100.00
29331;BME280;16331;52.528;13.342;2022-12-07T07:59:09;133421.13;;;4.33;100.00
29331;BME280;16331;52.528;13.342;2022-12-07T08:01:35;138028.19;;;4.29;100.00
29331;BME280;16331;52.528;13.342;2022-12-07T08:04:01;138388.28;;;4.31;100.00
29331;BME280;16331;52.528;13.342;2022-12-07T08:06:32;137672.97;;;4.29;100.00
29331;BME280;16331;52.528;13.342;2022-12-07T08:08:59;136624.16;;;4.36;100.00
29331;BME280;16331;52.528;13.342;2022-12-07T08:11:25;140548.84;;;4.43;100.00
29331;BME280;16331;52.528;13.342;2022-12-07T08:13:51;145866.22;;;4.35;100.00
29331;BME280;16331;52.528;13.342;2022-12-07T08:16:18;149766.81;;;4.28;100.00
29331;BME280;16331;52.528;13.342;2022-12-07T08:18:44;150704.47;;;4.33;100.00
29331;BME280;16331;52.528;13.342;2022-12-07T08:21:12;154955.34;;;4.41;100.00
29331;BME280;16331;52.528;13.342;2022-12-07T08:23:38;156947.06;;;4.45;100.00
29331;BME280;16331;52.528;13.342;2022-12-07T08:26:07;156915.69;;;4.34;100.00
29331;BME280;16331;52.528;13.342;2022-12-07T08:28:37;156914.34;;;4.33;100.00
29331;BME280;16331;52.528;13.342;2022-12-07T08:31:07;156933.41;;;4.40;100.00
29331;BME280;16331;52.528;13.342;2022-12-07T08:33:35;156951.16;;;4.47;100.00
29331;BME280;16331;52.528;13.342;2022-12-07T08:36:03;156989.34;;;4.61;100.00
29331;BME280;16331;52.528;13.342;2022-12-07T08:38:30;156982.53;;;4.59;100.00
29331;BME280;16331;52.528;13.342;2022-12-07T08:40:59;156994.81;;;4.63;100.00
29331;BME280;16331;52.528;13.342;2022-12-07T08:43:26;156967.50;;;4.53;100.00
29331;BME280;16331;52.528;13.342;2022-12-07T08:46:21;156968.88;;;4.54;100.00
29331;BME280;16331;52.528;13.342;2022-12-07T08:49:03;156978.44;;;4.57;100.00
29331;BME280;16331;52.528;13.342;2022-12-07T08:51:33;156949.81;;;4.47;100.00
29331;BME280;16331;52.528;13.342;2022-12-07T08:54:03;156948.44;;;4.46;100.00
29331;BME280;16331;52.528;13.342;2022-12-07T08:56:32;156994.81;;;4.63;100.00
29331;BME280;16331;52.528;13.342;2022-12-07T08:58:59;156988.00;;;4.61;100.00
29331;BME280;16331;52.528;13.342;2022-12-07T09:01:26;156998.91;;;4.65;100.00
29331;BME280;16331;52.528;13.342;2022-12-07T09:03:56;156986.63;;;4.60;100.00
29331;BME280;16331;52.528;13.342;2022-12-07T09:06:24;156977.06;;;4.57;100.00
29331;BME280;16331;52.528;13.342;2022-12-07T09:08:53;156958.00;;;4.50;100.00
29331;BME280;16331;52.528;13.342;2022-12-07T09:11:22;156983.91;;;4.59;100.00
29331;BME280;16331;52.528;13.342;2022-12-07T09:13:49;156994.81;;;4.63;100.00
29331;BME280;16331;52.528;13.342;2022-12-07T09:16:18;156960.72;;;4.51;100.00
29331;BME280;16331;52.528;13.342;2022-12-07T09:18:44;156915.69;;;4.34;100.00
29331;BME280;16331;52.528;13.342;2022-12-07T09:21:10;156892.53;;;4.25;100.00
29331;BME280;16331;52.528;13.342;2022-12-07T09:23:37;156882.97;;;4.22;100.00
29331;BME280;16331;52.528;13.342;2022-12-07T09:26:04;156907.50;;;4.31;100.00
29331;BME280;16331;52.528;13.342;2022-12-07T09:28:31;156944.34;;;4.44;100.00
29331;BME280;16331;52.528;13.342;2022-12-07T09:30:57;156975.72;;;4.56;100.00
29331;BME280;16331;52.528;13.342;2022-12-07T09:33:24;156962.09;;;4.51;100.00
29331;BME280;16331;52.528;13.342;2022-12-07T09:35:52;156972.97;;;4.55;100.00
29331;BME280;16331;52.528;13.342;2022-12-07T09:38:19;156948.44;;;4.46;100.00
29331;BME280;16331;52.528;13.342;2022-12-07T09:40:46;156915.69;;;4.34;100.00
29331;BME280;16331;52.528;13.342;2022-12-07T09:43:22;156921.16;;;4.36;100.00
29331;BME280;16331;52.528;13.342;2022-12-07T09:45:52;156899.31;;;4.28;100.00
29331;BME280;16331;52.528;13.342;2022-12-07T09:48:31;156889.78;;;4.24;100.00
29331;BME280;16331;52.528;13.342;2022-12-07T09:50:59;156861.16;;;4.14;100.00
29331;BME280;16331;52.528;13.342;2022-12-07T09:53:33;156919.78;;;4.35;100.00
29331;BME280;16331;52.528;13.342;2022-12-07T09:56:00;156897.94;;;4.27;100.00
29331;BME280;16331;52.528;13.342;2022-12-07T09:58:29;156903.41;;;4.29;100.00
29331;BME280;16331;52.528;13.342;2022-12-07T10:00:59;156882.97;;;4.22;100.00
29331;BME280;16331;52.528;13.342;2022-12-07T10:03:27;156896.63;;;4.27;100.00
29331;BME280;16331;52.528;13.342;2022-12-07T10:05:55;156932.09;;;4.40;100.00
29331;BME280;16331;52.528;13.342;2022-12-07T10:08:24;156891.16;;;4.25;100.00
29331;BME280;16331;52.528;13.342;2022-12-07T10:10:53;156907.50;;;4.31;100.00
29331;BME280;16331;52.528;13.342;2022-12-07T10:13:35;156910.25;;;4.32;100.00
29331;BME280;16331;52.528;13.342;2022-12-07T10:16:01;156937.50;;;4.42;100.00
29331;BME280;16331;52.528;13.342;2022-12-07T10:18:40;156932.09;;;4.40;100.00
29331;BME280;16331;52.528;13.342;2022-12-07T10:21:17;156940.25;;;4.43;100.00
29331;BME280;16331;52.528;13.342;2022-12-07T10:24:21;156929.31;;;4.39;100.00
29331;BME280;16331;52.528;13.342;2022-12-07T10:29:50;156929.31;;;4.39;100.00
29331;BME280;16331;52.528;13.342;2022-12-07T10:34:46;156979.81;;;4.58;100.00
29331;BME280;16331;52.528;13.342;2022-12-07T10:37:18;156958.00;;;4.50;100.00
29331;BME280;16331;52.528;13.342;2022-12-07T10:39:56;156928.00;;;4.38;100.00
29331;BME280;16331;52.528;13.342;2022-12-07T10:42:31;156955.25;;;4.48;100.00
29331;BME280;16331;52.528;13.342;2022-12-07T10:45:24;156915.69;;;4.34;100.00
29331;BME280;16331;52.528;13.342;2022-12-07T10:50:57;156906.16;;;4.30;100.00
29331;BME280;16331;52.528;13.342;2022-12-07T11:02:11;157011.16;;;4.69;100.00
29331;BME280;16331;52.528;13.342;2022-12-07T11:05:13;157012.53;;;4.70;100.00
29331;BME280;16331;52.528;13.342;2022-12-07T11:14:12;156992.09;;;4.62;100.00
29331;BME280;16331;52.528;13.342;2022-12-07T11:16:58;157041.22;;;4.80;100.00
29331;BME280;16331;52.528;13.342;2022-12-07T11:19:41;157076.66;;;4.93;100.00
29331;BME280;16331;52.528;13.342;2022-12-07T11:25:35;157067.16;;;4.90;100.00
29331;BME280;16331;52.528;13.342;2022-12-07T11:34:37;157065.78;;;4.89;100.00
29331;BME280;16331;52.528;13.342;2022-12-07T11:37:13;157093.06;;;4.99;100.00
29331;BME280;16331;52.528;13.342;2022-12-07T11:39:49;157110.81;;;5.06;100.00
29331;BME280;16331;52.528;13.342;2022-12-07T11:42:44;157120.34;;;5.09;100.00
29331;BME280;16331;52.528;13.342;2022-12-07T11:45:29;157099.88;;;5.02;100.00
29331;BME280;16331;52.528;13.342;2022-12-07T11:50:50;157196.81;;;5.37;100.00
29331;BME280;16331;52.528;13.342;2022-12-07T11:53:26;157221.38;;;5.46;100.00
29331;BME280;16331;52.528;13.342;2022-12-07T11:58:57;157119.00;;;5.09;100.00
29331;BME280;16331;52.528;13.342;2022-12-07T12:01:41;157097.16;;;5.01;100.00
29331;BME280;16331;52.528;13.342;2022-12-07T12:06:42;157125.81;;;5.11;100.00
29331;BME280;16331;52.528;13.342;2022-12-07T12:09:52;157161.31;;;5.24;100.00
29331;BME280;16331;52.528;13.342;2022-12-07T12:12:46;157180.44;;;5.31;100.00
29331;BME280;16331;52.528;13.342;2022-12-07T12:18:35;157241.81;;;5.54;100.00
29331;BME280;16331;52.528;13.342;2022-12-07T12:21:10;157276.00;;;5.66;100.00
29331;BME280;16331;52.528;13.342;2022-12-07T12:23:49;157245.91;;;5.55;100.00
29331;BME280;16331;52.528;13.342;2022-12-07T12:26:20;157286.91;;;5.70;100.00
29331;BME280;16331;52.528;13.342;2022-12-07T12:29:05;157280.09;;;5.68;100.00
29331;BME280;16331;52.528;13.342;2022-12-07T12:31:39;157232.31;;;5.50;100.00
29331;BME280;16331;52.528;13.342;2022-12-07T12:34:40;157183.16;;;5.32;100.00
29331;BME280;16331;52.528;13.342;2022-12-07T12:42:51;157211.78;;;5.43;100.00
29331;BME280;16331;52.528;13.342;2022-12-07T12:45:24;157170.88;;;5.28;100.00
29331;BME280;16331;52.528;13.342;2022-12-07T12:48:44;157176.28;;;5.30;100.00
29331;BME280;16331;52.528;13.342;2022-12-07T12:54:05;157240.50;;;5.53;100.00
29331;BME280;16331;52.528;13.342;2022-12-07T13:01:54;157245.91;;;5.55;100.00
29331;BME280;16331;52.528;13.342;2022-12-07T13:04:27;157282.81;;;5.69;100.00
29331;BME280;16331;52.528;13.342;2022-12-07T13:06:54;157252.78;;;5.58;100.00
29331;BME280;16331;52.528;13.342;2022-12-07T13:09:31;157207.69;;;5.41;100.00
29331;BME280;16331;52.528;13.342;2022-12-07T13:12:13;157235.03;;;5.51;100.00
29331;BME280;16331;52.528;13.342;2022-12-07T13:14:59;157207.69;;;5.41;100.00
29331;BME280;16331;52.528;13.342;2022-12-07T13:20:19;157263.69;;;5.62;100.00
29331;BME280;16331;52.528;13.342;2022-12-07T13:23:05;157259.59;;;5.60;100.00
29331;BME280;16331;52.528;13.342;2022-12-07T13:25:44;157244.59;;;5.55;100.00
29331;BME280;16331;52.528;13.342;2022-12-07T13:28:17;157259.59;;;5.60;100.00
29331;BME280;16331;52.528;13.342;2022-12-07T13:33:20;157206.38;;;5.41;100.00
29331;BME280;16331;52.528;13.342;2022-12-07T13:35:47;157314.25;;;5.80;100.00
29331;BME280;16331;52.528;13.342;2022-12-07T13:38:33;157291.00;;;5.72;100.00
29331;BME280;16331;52.528;13.342;2022-12-07T13:41:04;157241.81;;;5.54;100.00
29331;BME280;16331;52.528;13.342;2022-12-07T13:43:31;157202.28;;;5.39;100.00
29331;BME280;16331;52.528;13.342;2022-12-07T13:46:10;157245.91;;;5.55;100.00
29331;BME280;16331;52.528;13.342;2022-12-07T13:48:49;157184.53;;;5.33;100.00
29331;BME280;16331;52.528;13.342;2022-12-07T13:51:29;157207.69;;;5.41;100.00
29331;BME280;16331;52.528;13.342;2022-12-07T13:54:07;157254.16;;;5.58;100.00
29331;BME280;16331;52.528;13.342;2022-12-07T13:56:36;157243.22;;;5.54;100.00
29331;BME280;16331;52.528;13.342;2022-12-07T13:59:09;157224.06;;;5.47;100.00
29331;BME280;16331;52.528;13.342;2022-12-07T14:01:38;157202.28;;;5.39;100.00
29331;BME280;16331;52.528;13.342;2022-12-07T14:04:33;157229.53;;;5.49;100.00
29331;BME280;16331;52.528;13.342;2022-12-07T14:07:01;157215.88;;;5.44;100.00
29331;BME280;16331;52.528;13.342;2022-12-07T14:10:00;157225.47;;;5.48;100.00
29331;BME280;16331;52.528;13.342;2022-12-07T14:12:28;157192.72;;;5.36;100.00
29331;BME280;16331;52.528;13.342;2022-12-07T14:14:56;157180.44;;;5.31;100.00
29331;BME280;16331;52.528;13.342;2022-12-07T14:17:25;157211.78;;;5.43;100.00
29331;BME280;16331;52.528;13.342;2022-12-07T14:19:57;157207.69;;;5.41;100.00
29331;BME280;16331;52.528;13.342;2022-12-07T14:22:30;157210.47;;;5.42;100.00
29331;BME280;16331;52.528;13.342;2022-12-07T14:27:35;157184.53;;;5.33;100.00
29331;BME280;16331;52.528;13.342;2022-12-07T14:30:04;157165.41;;;5.26;100.00
29331;BME280;16331;52.528;13.342;2022-12-07T14:32:31;157180.44;;;5.31;100.00
29331;BME280;16331;52.528;13.342;2022-12-07T14:35:10;157150.34;;;5.20;100.00
29331;BME280;16331;52.528;13.342;2022-12-07T14:37:37;157117.63;;;5.08;100.00
29331;BME280;16331;52.528;13.342;2022-12-07T14:40:05;157078.03;;;4.94;100.00
29331;BME280;16331;52.528;13.342;2022-12-07T14:42:35;157056.22;;;4.86;100.00
29331;BME280;16331;52.528;13.342;2022-12-07T14:45:01;157067.16;;;4.90;100.00